createdAt,value
2019-05-23T00:01:26.421Z,92.76
2019-05-23T00:04:07.572Z,92.74
2019-05-23T00:06:39.575Z,92.94
2019-05-23T00:09:11.232Z,92.85
2019-05-23T00:12:00.657Z,92.72
2019-05-23T00:14:44.236Z,92.69
2019-05-23T00:17:20.862Z,92.63
2019-05-23T00:19:52.509Z,92.74
2019-05-23T00:22:23.020Z,92.92
2019-05-23T00:24:55.904Z,92.57
2019-05-23T00:27:26.601Z,92.74
2019-05-23T00:29:58.990Z,92.75
2019-05-23T00:32:46.988Z,93.00
2019-05-23T00:35:19.991Z,92.77
2019-05-23T00:37:52.039Z,92.97
2019-05-23T00:40:23.067Z,92.85
2019-05-23T00:42:53.658Z,92.96
2019-05-23T00:45:25.454Z,92.77
2019-05-23T00:47:57.253Z,92.01
2019-05-23T00:50:30.168Z,90.76
2019-05-23T00:53:00.707Z,90.08
2019-05-23T00:55:31.503Z,90.35
2019-05-23T00:58:02.969Z,90.39
2019-05-23T01:00:35.192Z,90.72
2019-05-23T01:03:06.823Z,91.38
2019-05-23T01:05:38.487Z,91.64
2019-05-23T01:08:09.024Z,91.87
2019-05-23T01:10:39.573Z,92.32
2019-05-23T01:13:11.317Z,93.52
2019-05-23T01:15:43.483Z,93.55
2019-05-23T01:18:14.232Z,93.67
2019-05-23T01:20:56.141Z,93.39
2019-05-23T01:23:27.570Z,93.57
2019-05-23T01:25:58.696Z,93.95
2019-05-23T01:28:29.828Z,94.26
2019-05-23T01:31:03.902Z,94.27
2019-05-23T01:33:35.536Z,94.33
2019-05-23T01:36:06.702Z,94.22
2019-05-23T01:38:38.997Z,93.99
2019-05-23T01:41:11.334Z,94.32
2019-05-23T01:43:42.544Z,94.24
2019-05-23T01:46:13.578Z,94.32
2019-05-23T01:48:44.986Z,94.22
2019-05-23T01:51:16.687Z,94.25
2019-05-23T01:53:47.992Z,94.34
2019-05-23T01:56:18.474Z,94.52
2019-05-23T01:58:49.087Z,94.44
2019-05-23T02:01:21.068Z,94.53
2019-05-23T02:03:52.653Z,94.38
2019-05-23T02:06:23.681Z,94.49
2019-05-23T02:08:54.545Z,94.33
2019-05-23T02:11:25.151Z,94.38
2019-05-23T02:13:56.382Z,94.42
2019-05-23T02:16:28.351Z,94.54
2019-05-23T02:18:58.911Z,94.52
2019-05-23T02:21:30.703Z,94.67
2019-05-23T02:24:02.315Z,94.40
2019-05-23T02:26:33.722Z,94.35
2019-05-23T02:29:05.133Z,94.45
2019-05-23T02:31:36.418Z,94.58
2019-05-23T02:34:08.664Z,94.72
2019-05-23T02:36:39.633Z,94.74
2019-05-23T02:39:30.834Z,94.64
2019-05-23T02:42:19.392Z,94.57
2019-05-23T02:44:50.571Z,94.60
2019-05-23T02:47:38.959Z,94.78
2019-05-23T02:50:17.074Z,94.79
2019-05-23T02:52:53.550Z,94.87
2019-05-23T02:55:30.999Z,94.93
2019-05-23T02:58:11.995Z,95.07
2019-05-23T03:01:06.277Z,94.96
2019-05-23T03:03:37.647Z,95.07
2019-05-23T03:06:15.074Z,95.25
2019-05-23T03:08:47.571Z,95.18
2019-05-23T03:11:45.706Z,95.04
2019-05-23T03:14:19.183Z,95.03
2019-05-23T03:16:54.490Z,95.04
2019-05-23T03:19:42.634Z,94.86
2019-05-23T03:22:49.070Z,94.95
2019-05-23T03:26:18.843Z,95.00
2019-05-23T03:28:50.194Z,94.70
2019-05-23T03:31:33.447Z,95.06
2019-05-23T03:34:05.637Z,95.14
2019-05-23T03:36:37.490Z,95.31
2019-05-23T03:39:09.644Z,95.27
2019-05-23T03:41:40.995Z,95.25
2019-05-23T03:44:12.007Z,95.17
2019-05-23T03:46:49.456Z,95.07
2019-05-23T03:49:21.061Z,95.04
2019-05-23T03:51:54.747Z,94.98
2019-05-23T03:54:27.862Z,94.85
2019-05-23T03:56:59.506Z,94.73
2019-05-23T03:59:31.459Z,94.57
2019-05-23T04:02:04.118Z,94.40
2019-05-23T04:04:34.660Z,94.62
2019-05-23T04:07:07.432Z,94.49
2019-05-23T04:09:37.997Z,94.65
2019-05-23T04:12:09.075Z,94.48
2019-05-23T04:14:39.742Z,94.73
2019-05-23T04:17:10.932Z,94.61
2019-05-23T04:19:41.438Z,94.60
2019-05-23T04:22:11.951Z,94.62
2019-05-23T04:24:42.523Z,94.58
2019-05-23T04:27:13.028Z,94.50
2019-05-23T04:29:43.710Z,94.53
2019-05-23T04:32:14.994Z,94.20
2019-05-23T04:34:45.852Z,93.69
2019-05-23T04:37:16.541Z,93.75
2019-05-23T04:39:47.363Z,93.65
2019-05-23T04:42:17.965Z,93.76
2019-05-23T04:44:48.546Z,93.85
2019-05-23T04:47:19.828Z,93.88
2019-05-23T04:49:50.621Z,93.75
2019-05-23T04:52:21.825Z,93.74
2019-05-23T04:54:55.029Z,93.61
2019-05-23T04:57:27.135Z,93.71
2019-05-23T04:59:57.739Z,93.69
2019-05-23T05:02:30.214Z,93.74
2019-05-23T05:05:00.944Z,93.71
2019-05-23T05:07:31.566Z,93.57
2019-05-23T05:10:02.556Z,93.53
2019-05-23T05:12:33.072Z,93.61
2019-05-23T05:15:03.592Z,93.50
2019-05-23T05:17:34.250Z,93.13
2019-05-23T05:20:05.890Z,92.83
2019-05-23T05:22:36.380Z,92.87
2019-05-23T05:25:08.736Z,92.94
2019-05-23T05:27:39.198Z,92.88
2019-05-23T05:30:11.547Z,92.34
2019-05-23T05:32:45.291Z,91.99
2019-05-23T05:35:14.339Z,91.86
2019-05-23T05:37:44.853Z,90.99
2019-05-23T05:40:18.400Z,90.78
2019-05-23T05:42:49.661Z,90.81
2019-05-23T05:45:20.706Z,90.64
2019-05-23T05:47:51.328Z,89.82
2019-05-23T05:50:23.561Z,89.79
2019-05-23T05:52:54.750Z,89.71
2019-05-23T05:55:25.626Z,89.54
2019-05-23T05:57:56.225Z,89.19
2019-05-23T06:00:39.932Z,88.71
2019-05-23T06:03:11.139Z,88.36
2019-05-23T06:05:55.235Z,87.10
2019-05-23T06:08:26.128Z,86.52
2019-05-23T06:10:57.197Z,85.38
2019-05-23T06:13:27.865Z,85.35
2019-05-23T06:15:58.693Z,84.30
2019-05-23T06:18:29.609Z,83.57
2019-05-23T06:21:01.569Z,83.53
2019-05-23T06:23:33.394Z,80.96
2019-05-23T06:26:04.168Z,80.24
2019-05-23T06:28:34.712Z,80.03
2019-05-23T06:31:05.622Z,79.92
2019-05-23T06:33:36.955Z,77.00
2019-05-23T06:36:07.850Z,77.00
2019-05-23T06:38:39.038Z,77.17
2019-05-23T06:41:10.159Z,72.99
2019-05-23T06:43:40.940Z,72.25
2019-05-23T06:46:11.839Z,73.23
2019-05-23T06:48:45.711Z,71.17
2019-05-23T06:51:14.725Z,69.25
2019-05-23T06:53:45.787Z,70.05
2019-05-23T06:56:16.508Z,68.94
2019-05-23T06:58:47.146Z,69.38
2019-05-23T07:01:17.679Z,69.38
2019-05-23T07:03:48.275Z,66.78
2019-05-23T07:06:23.368Z,66.72
2019-05-23T07:08:54.418Z,62.69
2019-05-23T07:11:26.774Z,62.96
2019-05-23T07:13:57.654Z,61.78
2019-05-23T07:16:28.268Z,60.08
2019-05-23T07:18:58.948Z,61.21
2019-05-23T07:21:30.602Z,59.05
2019-05-23T07:24:01.747Z,57.76
2019-05-23T07:26:32.534Z,57.87
2019-05-23T07:29:03.538Z,59.19
2019-05-23T07:31:35.696Z,59.97
2019-05-23T07:34:06.407Z,59.88
2019-05-23T07:36:37.808Z,57.31
2019-05-23T07:39:11.606Z,57.26
2019-05-23T07:41:42.686Z,57.38
2019-05-23T07:44:13.281Z,56.46
2019-05-23T07:46:44.170Z,56.51
2019-05-23T07:49:14.748Z,53.65
2019-05-23T07:51:45.561Z,52.85
2019-05-23T07:54:51.505Z,53.61
2019-05-23T07:57:21.986Z,52.63
2019-05-23T07:59:52.908Z,53.41
2019-05-23T08:02:34.297Z,51.12
2019-05-23T08:05:07.014Z,51.58
2019-05-23T08:07:37.606Z,53.36
2019-05-23T08:10:10.774Z,53.75
2019-05-23T08:12:41.826Z,51.64
2019-05-23T08:15:15.451Z,52.76
2019-05-23T08:17:46.189Z,52.20
2019-05-23T08:20:17.017Z,50.83
2019-05-23T08:22:48.062Z,52.31
2019-05-23T08:25:18.554Z,52.26
2019-05-23T08:27:49.471Z,52.97
2019-05-23T08:30:20.973Z,54.49
2019-05-23T08:32:51.708Z,52.88
2019-05-23T08:35:22.954Z,50.69
2019-05-23T08:37:54.866Z,50.83
2019-05-23T08:40:27.041Z,49.71
2019-05-23T08:42:57.535Z,50.17
2019-05-23T08:45:28.078Z,50.42
2019-05-23T08:47:58.710Z,51.90
2019-05-23T08:50:30.568Z,52.39
2019-05-23T08:53:01.249Z,53.16
2019-05-23T08:55:33.359Z,51.70
2019-05-23T08:58:05.525Z,52.69
2019-05-23T09:00:38.214Z,52.53
2019-05-23T09:03:10.309Z,53.46
2019-05-23T09:05:41.628Z,52.44
2019-05-23T09:08:16.776Z,52.42
2019-05-23T09:10:46.144Z,53.47
2019-05-23T09:13:16.794Z,53.83
2019-05-23T09:15:53.062Z,52.56
2019-05-23T09:18:19.830Z,52.69
2019-05-23T09:20:50.485Z,51.99
2019-05-23T09:23:21.394Z,49.61
2019-05-23T09:25:51.930Z,51.06
2019-05-23T09:28:22.426Z,51.48
2019-05-23T09:30:52.972Z,51.46
2019-05-23T09:35:59.770Z,50.16
2019-05-23T09:38:30.451Z,50.35
2019-05-23T09:41:01.173Z,49.85
2019-05-23T09:43:31.709Z,49.80
2019-05-23T09:46:02.267Z,49.12
2019-05-23T09:48:32.800Z,49.71
2019-05-23T09:51:03.291Z,49.01
2019-05-23T09:53:33.885Z,49.01
2019-05-23T09:56:04.496Z,50.85
2019-05-23T09:58:35.049Z,49.18
2019-05-23T10:01:05.816Z,49.52
2019-05-23T10:03:36.488Z,49.63
2019-05-23T10:06:08.040Z,49.23
2019-05-23T10:08:38.602Z,48.89
2019-05-23T10:11:09.078Z,49.79
2019-05-23T10:13:39.768Z,49.37
2019-05-23T10:16:11.099Z,48.80
2019-05-23T10:18:43.188Z,48.46
2019-05-23T10:21:13.805Z,46.79
2019-05-23T10:23:44.363Z,48.80
2019-05-23T10:26:15.157Z,47.08
2019-05-23T10:28:45.666Z,47.49
2019-05-23T10:31:16.189Z,47.25
2019-05-23T10:33:46.880Z,48.58
2019-05-23T10:36:17.578Z,48.87
2019-05-23T10:38:48.155Z,48.23
2019-05-23T10:41:18.792Z,50.62
2019-05-23T10:43:49.334Z,48.19
2019-05-23T10:46:20.044Z,48.15
2019-05-23T10:48:50.846Z,45.54
2019-05-23T10:51:21.813Z,46.53
2019-05-23T10:53:52.315Z,47.54
2019-05-23T10:56:22.902Z,45.85
2019-05-23T10:58:53.424Z,46.99
2019-05-23T11:01:24.101Z,44.88
2019-05-23T11:03:54.975Z,44.08
2019-05-23T11:06:26.704Z,45.33
2019-05-23T11:08:57.457Z,44.64
2019-05-23T11:11:28.341Z,43.75
2019-05-23T11:13:59.731Z,45.14
2019-05-23T11:16:30.807Z,44.10
2019-05-23T11:19:02.253Z,44.29
2019-05-23T11:21:32.764Z,43.82
2019-05-23T11:24:04.982Z,43.96
2019-05-23T11:26:35.879Z,43.84
2019-05-23T11:29:08.554Z,42.15
2019-05-23T11:31:39.935Z,43.24
2019-05-23T11:34:11.107Z,42.67
2019-05-23T11:36:41.703Z,42.68
2019-05-23T11:39:12.677Z,42.87
2019-05-23T11:41:43.255Z,42.98
2019-05-23T11:44:13.925Z,42.95
2019-05-23T11:46:44.673Z,44.72
2019-05-23T11:49:15.178Z,43.76
2019-05-23T11:51:46.224Z,42.14
2019-05-23T11:54:16.785Z,40.89
2019-05-23T11:56:47.732Z,41.53
2019-05-23T11:59:18.466Z,41.78
2019-05-23T12:02:00.466Z,42.43
2019-05-23T12:04:49.024Z,42.51
2019-05-23T12:07:26.696Z,41.64
2019-05-23T12:09:57.660Z,39.36
2019-05-23T12:12:28.612Z,39.73
2019-05-23T12:14:59.143Z,39.66
2019-05-23T12:17:32.216Z,39.31
2019-05-23T12:20:02.993Z,38.20
2019-05-23T12:22:34.611Z,39.57
2019-05-23T12:25:20.840Z,39.25
2019-05-23T12:27:39.293Z,37.22
2019-05-23T12:30:14.265Z,33.81
2019-05-23T12:32:44.973Z,33.12
2019-05-23T12:35:15.690Z,32.16
2019-05-23T12:37:46.259Z,32.42
2019-05-23T12:40:16.866Z,32.91
2019-05-23T12:42:47.378Z,32.80
2019-05-23T12:45:19.073Z,32.66
2019-05-23T12:48:00.769Z,31.82
2019-05-23T12:50:36.781Z,31.09
2019-05-23T12:53:10.188Z,30.45
2019-05-23T12:55:40.757Z,30.06
2019-05-23T12:58:11.408Z,31.43
2019-05-23T13:00:54.082Z,33.15
2019-05-23T13:03:24.800Z,31.83
2019-05-23T13:05:55.703Z,32.26
2019-05-23T13:08:26.271Z,30.07
2019-05-23T13:10:56.943Z,30.59
2019-05-23T13:13:27.949Z,30.97
2019-05-23T13:15:58.589Z,31.33
2019-05-23T13:18:29.275Z,28.78
2019-05-23T13:20:59.971Z,31.48
2019-05-23T13:23:31.438Z,33.41
2019-05-23T13:26:02.783Z,34.23
2019-05-23T13:28:33.485Z,34.97
2019-05-23T13:31:04.272Z,34.71
2019-05-23T13:33:35.321Z,33.83
2019-05-23T13:36:06.146Z,32.04
2019-05-23T13:38:36.866Z,31.92
2019-05-23T13:41:07.716Z,31.58
2019-05-23T13:43:38.287Z,32.12
2019-05-23T13:46:09.095Z,32.63
2019-05-23T13:48:39.733Z,34.85
2019-05-23T13:51:10.248Z,37.08
2019-05-23T13:53:40.883Z,35.39
2019-05-23T13:56:11.422Z,34.06
2019-05-23T13:58:42.007Z,34.68
2019-05-23T14:01:12.908Z,36.12
2019-05-23T14:03:44.137Z,36.41
2019-05-23T14:06:14.912Z,35.96
2019-05-23T14:08:45.541Z,34.65
2019-05-23T14:11:16.553Z,35.16
2019-05-23T14:13:47.292Z,35.74
2019-05-23T14:16:18.066Z,36.94
2019-05-23T14:18:48.661Z,37.74
2019-05-23T14:21:19.214Z,36.98
2019-05-23T14:23:49.809Z,37.54
2019-05-23T14:26:21.684Z,38.76
2019-05-23T14:28:52.271Z,38.48
2019-05-23T14:31:23.843Z,36.76
2019-05-23T14:33:57.603Z,35.24
2019-05-23T14:36:40.257Z,34.58
2019-05-23T14:39:17.045Z,33.16
2019-05-23T14:41:57.524Z,33.80
2019-05-23T14:44:28.186Z,30.68
2019-05-23T14:47:17.782Z,31.97
2019-05-23T14:49:57.217Z,31.79
2019-05-23T14:52:37.441Z,30.54
2019-05-23T14:55:10.875Z,31.78
2019-05-23T14:57:42.025Z,33.08
2019-05-23T15:00:12.680Z,34.24
2019-05-23T15:02:43.645Z,35.09
2019-05-23T15:05:14.396Z,32.27
2019-05-23T15:07:44.957Z,31.61
2019-05-23T15:10:16.924Z,29.54
2019-05-23T15:12:47.453Z,26.67
2019-05-23T15:15:18.335Z,25.11
2019-05-23T15:17:48.964Z,24.36
2019-05-23T15:20:19.595Z,25.53
2019-05-23T15:22:50.782Z,24.28
2019-05-23T15:25:21.413Z,24.75
2019-05-23T15:27:51.997Z,24.83
2019-05-23T15:30:22.990Z,27.22
2019-05-23T15:32:53.595Z,30.59
2019-05-23T15:35:25.179Z,29.96
2019-05-23T15:37:55.759Z,31.18
2019-05-23T15:40:26.459Z,29.54
2019-05-23T15:42:57.121Z,28.55
2019-05-23T15:45:27.710Z,28.70
2019-05-23T15:47:58.277Z,27.43
2019-05-23T15:53:42.562Z,26.89
2019-05-23T15:56:31.957Z,29.33
2019-05-23T15:59:25.071Z,30.46
2019-05-23T16:02:00.654Z,31.50
2019-05-23T16:04:31.626Z,35.53
2019-05-23T16:07:02.189Z,34.56
2019-05-23T16:09:32.856Z,34.55
2019-05-23T16:12:03.934Z,34.72
2019-05-23T16:14:34.531Z,35.10
2019-05-23T16:17:06.369Z,37.03
2019-05-23T16:19:36.936Z,33.20
2019-05-23T16:22:07.671Z,35.26
2019-05-23T16:24:38.221Z,34.81
2019-05-23T16:27:09.212Z,34.75
2019-05-23T16:29:40.882Z,33.83
2019-05-23T16:32:11.815Z,32.70
2019-05-23T16:34:42.582Z,32.20
2019-05-23T16:37:13.170Z,31.97
2019-05-23T16:39:48.325Z,32.27
2019-05-23T16:42:17.928Z,33.05
2019-05-23T16:44:49.500Z,31.84
2019-05-23T16:47:20.401Z,31.86
2019-05-23T16:49:51.115Z,31.34
2019-05-23T16:52:21.714Z,32.80
2019-05-23T16:54:54.072Z,35.23
2019-05-23T16:57:45.291Z,32.51
2019-05-23T17:00:34.612Z,33.08
2019-05-23T17:03:36.200Z,32.32
2019-05-23T17:06:13.407Z,31.88
2019-05-23T17:09:06.252Z,32.90
2019-05-23T17:11:52.562Z,33.06
2019-05-23T17:14:28.219Z,33.11
2019-05-23T17:17:36.453Z,34.85
2019-05-23T17:19:56.373Z,35.48
2019-05-23T17:22:40.994Z,36.73
2019-05-23T17:25:24.406Z,36.87
2019-05-23T17:28:01.278Z,37.22
2019-05-23T17:30:49.546Z,37.21
2019-05-23T17:33:20.134Z,37.76
2019-05-23T17:35:50.715Z,38.82
2019-05-23T17:38:24.445Z,38.71
2019-05-23T17:40:56.069Z,38.68
2019-05-23T17:43:31.601Z,38.63
2019-05-23T17:46:02.157Z,37.28
2019-05-23T17:48:32.647Z,38.75
2019-05-23T17:51:06.954Z,38.84
2019-05-23T17:53:37.449Z,39.46
2019-05-23T17:56:08.869Z,39.87
2019-05-23T17:58:41.971Z,40.21
2019-05-23T18:01:12.527Z,40.04
2019-05-23T18:03:43.114Z,40.89
2019-05-23T18:06:13.948Z,41.72
2019-05-23T18:08:44.546Z,41.12
2019-05-23T18:11:15.819Z,42.31
2019-05-23T18:13:46.375Z,42.58
2019-05-23T18:16:19.584Z,41.87
2019-05-23T18:18:50.845Z,43.75
2019-05-23T18:21:22.844Z,46.25
2019-05-23T18:23:54.056Z,46.69
2019-05-23T18:26:25.574Z,45.69
2019-05-23T18:28:56.075Z,46.15
2019-05-23T18:31:28.786Z,43.51
2019-05-23T18:33:59.307Z,44.02
2019-05-23T18:36:30.533Z,43.85
2019-05-23T18:39:01.789Z,43.42
2019-05-23T18:41:34.919Z,46.27
2019-05-23T18:44:06.711Z,45.77
2019-05-23T18:46:42.583Z,49.62
2019-05-23T18:49:13.317Z,50.78
2019-05-23T18:51:45.086Z,47.60
2019-05-23T18:54:15.953Z,49.39
2019-05-23T18:56:46.476Z,49.75
2019-05-23T18:59:17.957Z,50.78
2019-05-23T19:01:49.287Z,50.15
2019-05-23T19:04:19.772Z,52.54
2019-05-23T19:06:52.052Z,53.56
2019-05-23T19:09:22.697Z,53.61
2019-05-23T19:11:53.340Z,56.43
2019-05-23T19:14:23.929Z,56.74
2019-05-23T19:16:55.419Z,57.53
2019-05-23T19:19:26.067Z,58.86
2019-05-23T19:21:58.054Z,58.65
2019-05-23T19:24:29.666Z,59.48
2019-05-23T19:27:01.554Z,60.72
2019-05-23T19:29:33.553Z,61.00
2019-05-23T19:32:05.233Z,61.10
2019-05-23T19:34:36.125Z,62.10
2019-05-23T19:37:08.390Z,62.66
2019-05-23T19:39:39.558Z,63.78
2019-05-23T19:42:10.428Z,64.09
2019-05-23T19:44:40.985Z,65.04
2019-05-23T19:47:11.637Z,65.92
2019-05-23T19:49:42.220Z,66.17
2019-05-23T19:52:13.014Z,67.22
2019-05-23T19:54:43.870Z,67.88
2019-05-23T19:57:14.615Z,67.23
2019-05-23T19:59:45.213Z,67.91
2019-05-23T20:02:34.497Z,68.92
2019-05-23T20:05:14.923Z,68.53
2019-05-23T20:07:45.519Z,68.08
2019-05-23T20:10:17.733Z,69.15
2019-05-23T20:12:48.666Z,68.67
2019-05-23T20:15:19.859Z,69.50
2019-05-23T20:17:52.115Z,69.28
2019-05-23T20:20:23.450Z,69.80
2019-05-23T20:22:53.958Z,70.47
2019-05-23T20:25:25.983Z,71.18
2019-05-23T20:27:56.461Z,71.37
2019-05-23T20:30:58.784Z,71.31
2019-05-23T20:33:29.632Z,71.68
2019-05-23T20:36:01.950Z,72.39
2019-05-23T20:38:32.458Z,72.70
2019-05-23T20:41:03.021Z,73.62
2019-05-23T20:43:33.490Z,74.02
2019-05-23T20:46:04.016Z,74.16
2019-05-23T20:48:34.732Z,73.97
2019-05-23T20:51:05.216Z,74.80
2019-05-23T20:53:35.946Z,74.32
2019-05-23T20:56:07.256Z,75.19
2019-05-23T20:58:37.824Z,75.53
2019-05-23T21:01:16.366Z,75.08
2019-05-23T21:03:48.136Z,74.97
2019-05-23T21:06:18.814Z,75.09
2019-05-23T21:08:49.358Z,75.37
2019-05-23T21:11:19.868Z,75.39
2019-05-23T21:13:50.370Z,76.03
2019-05-23T21:16:20.923Z,75.77
2019-05-23T21:18:51.560Z,76.65
2019-05-23T21:21:22.368Z,76.99
2019-05-23T21:23:56.791Z,77.26
2019-05-23T21:26:26.623Z,77.58
2019-05-23T21:28:57.157Z,78.13
2019-05-23T21:31:28.672Z,77.42
2019-05-23T21:33:59.280Z,77.60
2019-05-23T21:36:30.353Z,78.25
2019-05-23T21:39:01.743Z,78.61
2019-05-23T21:41:32.885Z,72.18
2019-05-23T21:44:03.821Z,66.38
2019-05-23T21:46:35.196Z,64.40
2019-05-23T21:49:05.868Z,63.21
2019-05-23T21:51:36.346Z,64.49
2019-05-23T21:54:06.928Z,67.29
2019-05-23T21:56:37.494Z,69.34
2019-05-23T21:59:08.088Z,69.74
2019-05-23T22:01:57.009Z,69.84
2019-05-23T22:04:49.627Z,70.81
2019-05-23T22:07:20.342Z,72.21
2019-05-23T22:09:50.940Z,73.98
2019-05-23T22:12:21.727Z,73.67
2019-05-23T22:14:52.698Z,74.73
2019-05-23T22:17:24.857Z,75.24
2019-05-23T22:19:55.457Z,75.34
2019-05-23T22:22:26.052Z,75.92
2019-05-23T22:24:56.684Z,76.30
2019-05-23T22:27:27.224Z,75.90
2019-05-23T22:29:57.707Z,76.42
2019-05-23T22:32:29.707Z,76.15
2019-05-23T22:35:07.086Z,76.59
2019-05-23T22:37:37.636Z,77.42
2019-05-23T22:40:08.445Z,78.25
2019-05-23T22:42:39.356Z,78.45
2019-05-23T22:45:15.106Z,78.17
2019-05-23T22:47:45.736Z,78.56
2019-05-23T22:50:16.227Z,78.53
2019-05-23T22:52:46.834Z,77.74
2019-05-23T22:55:17.394Z,79.21
2019-05-23T22:57:48.039Z,78.96
2019-05-23T23:00:28.732Z,78.30
2019-05-23T23:02:59.350Z,78.69
2019-05-23T23:05:29.817Z,79.02
2019-05-23T23:08:00.534Z,80.02
2019-05-23T23:10:31.435Z,80.05
2019-05-23T23:13:02.026Z,79.75
2019-05-23T23:15:33.177Z,79.82
2019-05-23T23:18:03.609Z,80.15
2019-05-23T23:20:34.504Z,79.76
2019-05-23T23:23:05.066Z,80.34
2019-05-23T23:25:35.649Z,81.25
2019-05-23T23:28:06.486Z,81.61
2019-05-23T23:30:38.781Z,81.48
2019-05-23T23:33:09.307Z,81.00
2019-05-23T23:35:39.786Z,80.27
2019-05-23T23:38:10.412Z,80.87
2019-05-23T23:40:40.901Z,80.29
2019-05-23T23:43:11.614Z,80.32
2019-05-23T23:46:00.406Z,81.54
2019-05-23T23:48:48.806Z,81.53
2019-05-23T23:51:36.848Z,81.90
2019-05-23T23:54:25.152Z,81.73
2019-05-23T23:57:13.491Z,81.39
2019-05-23T23:59:42.988Z,81.65
